ΕΜΥ, Εθνική Μετεωρολογική Υπηρεσία - Δελτία Καιρού, Προγνώσεις

ΑΕΡΟΝΑΥΤΙΛΙΑ

GREEK AIRPORTS CODES

EUROPEAN AIRPORTS CODES

EHAM 141325Z 28013KT 250V320 9999 FEW032 12/05 Q1022 NOSIG=